Time;durP1;ratioP1;P1;durP2;ratioP2;P2;SDS_P1;SDS_P2;PMS_P1;PMS_P2;Temp;Humidity;BMP_temperature;BMP_pressure;BME280_temperature;BME280_humidity;BME280_pressure;Samples;Min_cycle;Max_cycle;Signal;HPM_P1;HPM_P2
2022/04/29 00:02:09;;;;;;;9.63;3.13;;;7.30;99.90;;;;;;5073820;28;20052;-61
2022/04/29 00:04:36;;;;;;;9.30;3.67;;;7.30;99.90;;;;;;5074074;28;20048;-62
2022/04/29 00:07:03;;;;;;;7.97;3.38;;;7.30;99.90;;;;;;5072727;28;20414;-62
2022/04/29 00:09:29;;;;;;;10.40;3.38;;;7.30;99.90;;;;;;5072258;28;20572;-62
2022/04/29 00:11:54;;;;;;;9.95;3.30;;;7.20;99.90;;;;;;5072755;28;20102;-62
2022/04/29 00:14:21;;;;;;;8.40;3.30;;;7.30;99.90;;;;;;5072194;28;20041;-62
2022/04/29 00:16:47;;;;;;;8.52;3.67;;;7.20;99.90;;;;;;5072635;28;20049;-62
2022/04/29 00:19:13;;;;;;;8.63;3.50;;;7.20;99.90;;;;;;5073455;28;20044;-64
2022/04/29 00:21:41;;;;;;;7.55;3.40;;;7.20;99.90;;;;;;5073551;28;20057;-62
2022/04/29 00:24:09;;;;;;;8.70;3.78;;;7.10;99.90;;;;;;5073882;28;20049;-62
2022/04/29 00:26:37;;;;;;;6.05;3.35;;;7.20;99.90;;;;;;5073410;28;20041;-62
2022/04/29 00:29:03;;;;;;;6.85;3.55;;;7.10;99.90;;;;;;5072385;28;20324;-62
2022/04/29 00:31:30;;;;;;;9.32;3.53;;;7.00;99.90;;;;;;5073067;28;20040;-66
2022/04/29 00:33:56;;;;;;;7.10;3.72;;;7.10;99.90;;;;;;5073556;28;20239;-62
2022/04/29 00:36:22;;;;;;;7.75;3.63;;;7.00;99.90;;;;;;5071331;28;20516;-63
2022/04/29 00:38:48;;;;;;;12.95;3.95;;;7.00;99.90;;;;;;5072831;28;20071;-63
2022/04/29 00:41:22;;;;;;;9.05;3.63;;;6.90;99.90;;;;;;5072216;28;20056;-67
2022/04/29 00:44:02;;;;;;;7.85;3.75;;;6.90;99.90;;;;;;5072239;28;20470;-63
2022/04/29 00:46:28;;;;;;;8.60;3.90;;;6.90;99.90;;;;;;5073033;28;20070;-63
2022/04/29 00:48:54;;;;;;;12.05;3.92;;;6.90;99.90;;;;;;5073248;28;20053;-63
2022/04/29 00:51:20;;;;;;;7.30;3.80;;;6.90;99.90;;;;;;5072816;28;20106;-63
2022/04/29 00:53:45;;;;;;;11.65;4.20;;;6.90;99.90;;;;;;5073259;28;20507;-62
2022/04/29 00:56:12;;;;;;;10.98;3.88;;;6.90;99.90;;;;;;5073200;28;20048;-62
2022/04/29 00:58:42;;;;;;;6.22;3.40;;;6.80;99.90;;;;;;5072825;28;20052;-62
2022/04/29 01:01:08;;;;;;;9.32;4.32;;;6.80;99.90;;;;;;5071860;28;20052;-63
2022/04/29 01:03:37;;;;;;;6.75;3.60;;;6.80;99.90;;;;;;5072494;28;20114;-63
2022/04/29 01:06:03;;;;;;;9.07;4.00;;;6.70;99.90;;;;;;5072985;28;20045;-62
2022/04/29 01:08:28;;;;;;;8.63;4.07;;;6.70;99.90;;;;;;5072627;28;20474;-62
2022/04/29 01:10:55;;;;;;;9.93;4.03;;;6.70;99.90;;;;;;5054990;28;20079;-63
2022/04/29 01:13:21;;;;;;;10.70;3.90;;;6.70;99.90;;;;;;5070848;28;20052;-63
2022/04/29 01:15:48;;;;;;;8.13;3.90;;;6.70;99.90;;;;;;5072758;28;20102;-63
2022/04/29 01:18:16;;;;;;;9.60;4.28;;;6.70;99.90;;;;;;5072908;28;20052;-62
2022/04/29 01:20:43;;;;;;;11.55;4.13;;;6.70;99.90;;;;;;5072622;28;20123;-61
2022/04/29 01:23:11;;;;;;;10.00;4.50;;;6.60;99.90;;;;;;5072760;28;20045;-61
2022/04/29 01:25:38;;;;;;;10.52;4.03;;;6.60;99.90;;;;;;5054276;28;20498;-62
2022/04/29 01:28:04;;;;;;;9.48;4.47;;;6.60;99.90;;;;;;5071296;28;20048;-60
2022/04/29 01:30:31;;;;;;;9.20;4.40;;;6.60;99.90;;;;;;5072018;28;20044;-63
2022/04/29 01:32:59;;;;;;;10.60;5.15;;;6.50;99.90;;;;;;5071065;28;20098;-61
2022/04/29 01:35:25;;;;;;;10.25;4.55;;;6.50;99.90;;;;;;5071744;28;20477;-61
2022/04/29 01:37:51;;;;;;;12.75;5.13;;;6.50;99.90;;;;;;5072367;28;20094;-61
2022/04/29 01:40:17;;;;;;;10.40;5.07;;;6.50;99.90;;;;;;5071000;28;20094;-62
2022/04/29 01:42:43;;;;;;;10.88;4.55;;;6.50;99.90;;;;;;5071756;28;20183;-63
2022/04/29 01:45:10;;;;;;;9.90;4.78;;;6.60;99.90;;;;;;5072078;28;20049;-62
2022/04/29 01:47:36;;;;;;;9.73;4.32;;;6.60;99.90;;;;;;5071752;28;20109;-63
2022/04/29 01:50:02;;;;;;;9.60;4.68;;;6.60;99.90;;;;;;5071165;28;20068;-63
2022/04/29 01:52:28;;;;;;;9.45;4.93;;;6.60;99.90;;;;;;5071764;28;20456;-62
2022/04/29 01:54:54;;;;;;;9.68;5.25;;;6.60;99.90;;;;;;5072118;28;20139;-62
2022/04/29 01:57:20;;;;;;;10.23;4.82;;;6.60;99.90;;;;;;5072012;28;20472;-64
2022/04/29 01:59:45;;;;;;;11.05;5.13;;;6.60;99.90;;;;;;5071514;28;20051;-62
2022/04/29 02:02:11;;;;;;;9.40;5.18;;;6.50;99.90;;;;;;5069955;28;20458;-63
2022/04/29 02:04:37;;;;;;;12.52;4.95;;;6.50;99.90;;;;;;5071439;28;20063;-62
2022/04/29 02:07:04;;;;;;;8.48;4.32;;;6.50;99.90;;;;;;5070402;28;20149;-61
2022/04/29 02:09:30;;;;;;;9.13;5.60;;;6.50;99.90;;;;;;5071317;28;20060;-62
2022/04/29 02:12:05;;;;;;;10.13;5.28;;;6.40;99.90;;;;;;5070059;28;20106;-62
2022/04/29 02:14:32;;;;;;;7.68;5.03;;;6.40;99.90;;;;;;5071422;28;20455;-65
2022/04/29 02:16:58;;;;;;;10.90;5.20;;;6.30;99.90;;;;;;5071485;28;20056;-63
2022/04/29 02:19:25;;;;;;;10.23;4.57;;;6.30;99.90;;;;;;5071322;28;20131;-66
2022/04/29 02:21:52;;;;;;;8.70;4.53;;;6.30;99.90;;;;;;5071215;28;20145;-62
2022/04/29 02:24:18;;;;;;;8.27;4.80;;;6.40;99.90;;;;;;5071507;28;20044;-64
2022/04/29 02:26:43;;;;;;;7.40;5.18;;;6.40;99.90;;;;;;5070892;28;20037;-63
2022/04/29 02:29:09;;;;;;;8.95;5.40;;;6.40;99.90;;;;;;5070544;28;20053;-62
2022/04/29 02:31:35;;;;;;;10.30;5.22;;;6.40;99.90;;;;;;5069799;28;20124;-63
2022/04/29 02:34:01;;;;;;;8.85;5.32;;;6.40;99.90;;;;;;5071444;28;20052;-62
2022/04/29 02:36:28;;;;;;;7.90;5.25;;;6.30;99.90;;;;;;5071151;28;20080;-67
2022/04/29 02:38:53;;;;;;;12.48;5.45;;;6.30;99.90;;;;;;5070129;28;20056;-62
2022/04/29 02:41:19;;;;;;;13.85;6.13;;;6.50;99.90;;;;;;5071373;28;20040;-62
2022/04/29 02:43:45;;;;;;;9.77;5.32;;;6.30;99.90;;;;;;5070832;28;20048;-61
2022/04/29 02:46:11;;;;;;;8.65;5.80;;;6.40;99.90;;;;;;5071338;28;20124;-63
2022/04/29 02:48:37;;;;;;;8.27;5.22;;;6.30;99.90;;;;;;5070418;28;20080;-61
2022/04/29 02:51:04;;;;;;;8.18;5.57;;;6.30;99.90;;;;;;5071234;28;20482;-63
2022/04/29 02:53:31;;;;;;;8.30;5.53;;;6.30;99.90;;;;;;5069875;28;20052;-67
2022/04/29 02:55:57;;;;;;;14.88;5.43;;;6.30;99.90;;;;;;5071129;28;20052;-64
2022/04/29 02:58:23;;;;;;;10.98;6.18;;;6.30;99.90;;;;;;5071009;28;20109;-62
2022/04/29 03:00:48;;;;;;;10.43;5.95;;;6.30;99.90;;;;;;5070264;28;20275;-62
2022/04/29 03:03:14;;;;;;;11.68;5.70;;;6.30;99.90;;;;;;5071028;28;20040;-62
2022/04/29 03:05:40;;;;;;;11.32;5.63;;;6.30;99.90;;;;;;5070715;28;20161;-62
2022/04/29 03:08:07;;;;;;;10.48;5.13;;;6.30;99.90;;;;;;5070756;28;20066;-63
2022/04/29 03:10:33;;;;;;;9.82;5.88;;;6.40;99.90;;;;;;5070569;28;20051;-66
2022/04/29 03:12:59;;;;;;;12.23;5.82;;;6.40;99.90;;;;;;5071052;28;20048;-63
2022/04/29 03:15:28;;;;;;;9.57;6.22;;;6.40;99.90;;;;;;5069901;28;20067;-62
2022/04/29 03:20:40;;;;;;;7.95;5.57;;;6.40;99.90;;;;;;5069265;28;20067;-63
2022/04/29 03:23:07;;;;;;;12.13;5.40;;;6.40;99.90;;;;;;5070605;28;20059;-62
2022/04/29 03:25:33;;;;;;;9.05;5.78;;;6.40;99.90;;;;;;5069512;28;20052;-67
2022/04/29 03:28:00;;;;;;;11.23;5.47;;;6.40;99.90;;;;;;5069837;28;20048;-62
2022/04/29 03:30:25;;;;;;;9.02;5.75;;;6.40;99.90;;;;;;5069386;28;20118;-61
2022/04/29 03:32:53;;;;;;;10.13;5.43;;;6.40;99.90;;;;;;5070354;28;20052;-61
2022/04/29 03:35:19;;;;;;;8.95;6.00;;;6.40;99.90;;;;;;5069789;28;20136;-61
2022/04/29 03:37:46;;;;;;;10.57;5.60;;;6.50;99.90;;;;;;5070338;28;20064;-62
2022/04/29 03:40:15;;;;;;;9.00;5.90;;;6.40;99.90;;;;;;5069411;28;20040;-63
2022/04/29 03:42:41;;;;;;;10.55;5.93;;;6.50;99.90;;;;;;5070332;28;20095;-63
2022/04/29 03:45:07;;;;;;;10.93;5.55;;;6.40;99.90;;;;;;5070759;28;20080;-61
2022/04/29 03:47:33;;;;;;;12.52;6.25;;;6.40;99.90;;;;;;5069351;28;20048;-62
2022/04/29 03:50:01;;;;;;;8.88;5.80;;;6.50;99.90;;;;;;5051795;28;20072;-62
2022/04/29 03:52:27;;;;;;;9.38;6.10;;;6.30;99.90;;;;;;5070580;28;20053;-63
2022/04/29 03:54:53;;;;;;;9.63;6.20;;;6.40;99.90;;;;;;5068968;28;20055;-62
2022/04/29 03:57:18;;;;;;;9.85;5.90;;;6.40;99.90;;;;;;5070649;28;20414;-62
2022/04/29 03:59:44;;;;;;;12.00;5.90;;;6.40;99.90;;;;;;5069100;28;20113;-65
2022/04/29 04:02:10;;;;;;;10.23;6.38;;;6.40;99.90;;;;;;5069519;28;20048;-63
2022/04/29 04:04:35;;;;;;;8.10;5.93;;;6.50;99.90;;;;;;5070520;28;20390;-67
2022/04/29 04:07:02;;;;;;;11.45;5.53;;;6.50;99.90;;;;;;5070240;28;20062;-63
2022/04/29 04:09:28;;;;;;;11.35;5.70;;;6.50;99.90;;;;;;5070467;28;20041;-63
2022/04/29 04:11:54;;;;;;;10.55;6.05;;;6.50;99.90;;;;;;5070297;28;20103;-61
2022/04/29 04:14:19;;;;;;;12.32;5.47;;;6.50;99.90;;;;;;5073867;28;20447;-64
2022/04/29 04:16:48;;;;;;;11.35;6.30;;;6.50;99.90;;;;;;5073450;28;20106;-62
2022/04/29 04:19:14;;;;;;;9.23;5.80;;;6.60;99.90;;;;;;5073899;28;20048;-63
2022/04/29 04:21:40;;;;;;;11.45;6.47;;;6.50;99.90;;;;;;5072158;28;20150;-67
2022/04/29 04:24:07;;;;;;;10.25;6.57;;;6.50;99.90;;;;;;5073690;28;20391;-62
2022/04/29 04:26:32;;;;;;;11.85;6.50;;;6.50;99.90;;;;;;5072688;28;20482;-63
2022/04/29 04:28:59;;;;;;;7.78;5.90;;;6.50;99.90;;;;;;5073352;28;20128;-62
2022/04/29 04:31:24;;;;;;;14.05;6.45;;;6.50;99.90;;;;;;5072078;28;20454;-64
2022/04/29 04:33:53;;;;;;;9.35;6.00;;;6.50;99.90;;;;;;5071983;28;20048;-63
2022/04/29 04:36:18;;;;;;;10.40;5.78;;;6.50;99.90;;;;;;5072242;28;20040;-63
2022/04/29 04:38:47;;;;;;;9.45;5.78;;;6.60;99.90;;;;;;5055127;28;20069;-62
2022/04/29 04:41:15;;;;;;;8.52;5.25;;;6.60;99.90;;;;;;5072365;28;20447;-62
2022/04/29 04:43:42;;;;;;;9.25;5.80;;;6.70;99.90;;;;;;5072084;28;20094;-66
2022/04/29 04:46:08;;;;;;;12.23;6.82;;;6.60;99.90;;;;;;5073360;28;20060;-62
2022/04/29 04:48:34;;;;;;;12.23;6.07;;;6.70;99.90;;;;;;5071959;28;20056;-64
2022/04/29 04:51:03;;;;;;;7.22;5.50;;;6.80;99.90;;;;;;5071502;28;20135;-62
2022/04/29 04:53:29;;;;;;;11.25;6.88;;;7.00;99.90;;;;;;5073128;28;20047;-62
2022/04/29 04:55:55;;;;;;;10.40;7.00;;;6.90;99.90;;;;;;5071348;28;20080;-62
2022/04/29 04:58:21;;;;;;;10.95;6.40;;;6.90;99.90;;;;;;5072980;28;20149;-63
2022/04/29 05:00:47;;;;;;;12.02;6.40;;;6.90;99.90;;;;;;5072633;28;20393;-62
2022/04/29 05:03:12;;;;;;;9.68;6.30;;;7.00;99.90;;;;;;5072946;28;20109;-63
2022/04/29 05:05:39;;;;;;;9.50;6.75;;;7.30;99.90;;;;;;5073074;28;20127;-63
2022/04/29 05:08:06;;;;;;;9.07;6.30;;;7.00;99.90;;;;;;5072365;28;20044;-61
2022/04/29 05:10:32;;;;;;;8.05;6.40;;;7.10;99.90;;;;;;5072780;28;20036;-63
2022/04/29 05:12:57;;;;;;;12.73;7.25;;;7.20;99.90;;;;;;5071045;28;20047;-62
2022/04/29 05:15:23;;;;;;;9.88;6.32;;;7.30;99.90;;;;;;5072773;28;20091;-62
2022/04/29 05:17:49;;;;;;;11.50;6.05;;;7.40;99.90;;;;;;5071077;28;20413;-62
2022/04/29 05:20:16;;;;;;;8.48;6.05;;;7.40;99.90;;;;;;5072632;28;20093;-63
2022/04/29 05:22:42;;;;;;;10.27;6.00;;;7.40;99.90;;;;;;5072378;28;20543;-63
2022/04/29 05:25:08;;;;;;;9.48;5.90;;;7.50;99.90;;;;;;5070905;28;20052;-62
2022/04/29 05:27:34;;;;;;;10.27;5.40;;;7.60;99.90;;;;;;5071599;28;20367;-62
2022/04/29 05:29:59;;;;;;;8.65;5.75;;;7.70;99.90;;;;;;5054312;28;20052;-62
2022/04/29 05:32:26;;;;;;;11.48;5.90;;;7.80;99.90;;;;;;5071171;28;20432;-62
2022/04/29 05:34:52;;;;;;;8.15;5.45;;;7.80;99.90;;;;;;5071953;28;20402;-62
2022/04/29 05:37:18;;;;;;;8.40;5.53;;;7.80;99.90;;;;;;5072393;28;20117;-62
2022/04/29 05:42:29;;;;;;;7.32;4.75;;;7.80;99.90;;;;;;5072458;28;20056;-62
2022/04/29 05:44:55;;;;;;;9.10;4.90;;;7.90;99.90;;;;;;5071617;28;20048;-63
2022/04/29 05:47:21;;;;;;;8.18;4.95;;;7.90;99.90;;;;;;5054547;28;20509;-62
2022/04/29 05:49:47;;;;;;;7.68;4.88;;;8.30;99.90;;;;;;5070449;28;20183;-63
2022/04/29 05:52:13;;;;;;;10.60;5.18;;;7.90;99.90;;;;;;5071638;28;20132;-63
2022/04/29 05:54:39;;;;;;;6.32;4.63;;;7.90;99.90;;;;;;5072025;28;20059;-62
2022/04/29 05:57:05;;;;;;;7.10;4.30;;;8.00;99.90;;;;;;5070598;28;20045;-62
2022/04/29 05:59:31;;;;;;;8.23;4.07;;;8.00;99.90;;;;;;5072043;28;20048;-62
2022/04/29 06:01:58;;;;;;;9.55;4.72;;;8.00;99.90;;;;;;5071525;28;20047;-62
2022/04/29 06:04:24;;;;;;;6.22;4.00;;;8.10;99.90;;;;;;5071441;28;20137;-62
2022/04/29 06:06:50;;;;;;;9.82;4.18;;;8.10;99.90;;;;;;5069349;28;20339;-67
2022/04/29 06:09:16;;;;;;;7.30;3.92;;;8.10;99.90;;;;;;5070161;28;20056;-62
2022/04/29 06:11:41;;;;;;;8.73;4.38;;;8.10;99.90;;;;;;5070096;28;20071;-61
2022/04/29 06:14:07;;;;;;;5.72;4.50;;;8.20;99.90;;;;;;5070526;28;20052;-63
2022/04/29 06:16:33;;;;;;;7.95;4.32;;;8.20;99.90;;;;;;5069862;28;20049;-62
2022/04/29 06:18:59;;;;;;;8.68;3.95;;;8.30;99.90;;;;;;5070995;28;20063;-62
2022/04/29 06:21:25;;;;;;;6.75;3.90;;;8.40;99.90;;;;;;5070072;28;20397;-62
2022/04/29 06:23:51;;;;;;;7.07;3.97;;;8.40;99.90;;;;;;5069963;28;20052;-62
2022/04/29 06:26:17;;;;;;;9.73;4.00;;;8.50;99.90;;;;;;5071078;28;20051;-61
2022/04/29 06:28:43;;;;;;;10.75;4.45;;;8.50;99.90;;;;;;5069914;28;20049;-62
2022/04/29 06:31:09;;;;;;;9.90;4.20;;;8.60;99.90;;;;;;5069784;28;20133;-63
2022/04/29 06:33:36;;;;;;;5.35;3.85;;;8.70;99.90;;;;;;5071660;28;20048;-63
2022/04/29 06:36:02;;;;;;;5.18;3.65;;;8.80;99.90;;;;;;5070587;28;20051;-63
2022/04/29 06:38:28;;;;;;;13.35;4.28;;;9.00;99.90;;;;;;5071356;28;20409;-63
2022/04/29 06:40:58;;;;;;;7.43;4.00;;;9.00;99.90;;;;;;5071133;28;20071;-66
2022/04/29 06:43:24;;;;;;;7.80;3.60;;;8.90;99.90;;;;;;5069719;28;20517;-63
2022/04/29 06:45:50;;;;;;;9.45;3.90;;;9.00;99.90;;;;;;5069932;28;20048;-62
2022/04/29 06:48:16;;;;;;;7.53;3.95;;;9.00;99.90;;;;;;5070613;28;20053;-62
2022/04/29 06:50:42;;;;;;;8.30;3.50;;;9.00;99.90;;;;;;5053442;28;20496;-62
2022/04/29 06:53:08;;;;;;;7.25;4.20;;;9.00;99.90;;;;;;5069737;28;20052;-63
2022/04/29 06:55:38;;;;;;;7.28;3.53;;;8.90;99.90;;;;;;5071067;28;20139;-63
2022/04/29 06:58:04;;;;;;;7.80;4.22;;;8.90;99.90;;;;;;5070686;28;20044;-62
2022/04/29 07:00:29;;;;;;;6.82;3.45;;;8.90;99.90;;;;;;5071250;28;20044;-63
2022/04/29 07:02:56;;;;;;;24.00;5.05;;;9.00;99.90;;;;;;5070260;28;20121;-62
2022/04/29 07:05:23;;;;;;;9.65;4.22;;;9.00;99.90;;;;;;5069433;28;20076;-62
2022/04/29 07:07:50;;;;;;;6.57;3.72;;;9.00;99.90;;;;;;5071625;28;20067;-63
2022/04/29 07:10:16;;;;;;;7.78;3.97;;;9.00;99.90;;;;;;5070577;28;20055;-63
2022/04/29 07:12:44;;;;;;;6.57;3.65;;;9.10;99.90;;;;;;5069668;28;20055;-61
2022/04/29 07:15:12;;;;;;;8.07;3.75;;;9.20;99.90;;;;;;5070670;28;20055;-62
2022/04/29 07:17:45;;;;;;;11.27;4.63;;;9.30;99.90;;;;;;5071246;28;20127;-62
2022/04/29 07:20:12;;;;;;;7.05;3.50;;;9.40;99.90;;;;;;5069720;28;20055;-63
2022/04/29 07:22:39;;;;;;;8.40;3.75;;;9.50;99.90;;;;;;5070082;28;20136;-63
2022/04/29 07:25:07;;;;;;;8.60;3.67;;;9.50;99.90;;;;;;5070839;28;20098;-63
2022/04/29 07:27:33;;;;;;;5.13;3.00;;;9.40;99.90;;;;;;5071151;28;20053;-61
2022/04/29 07:30:00;;;;;;;6.25;2.50;;;9.40;99.90;;;;;;5069903;28;20091;-62
2022/04/29 07:32:26;;;;;;;7.88;2.70;;;9.30;99.90;;;;;;5070895;28;20128;-62
2022/04/29 07:43:10;;;;;;;8.93;2.60;;;9.30;99.90;;;;;;5070566;28;19975;-62
2022/04/29 07:45:38;;;;;;;4.22;2.13;;;9.30;99.90;;;;;;5070832;28;20055;-64
2022/04/29 07:48:05;;;;;;;9.25;2.67;;;9.40;99.90;;;;;;5074001;28;20048;-67
2022/04/29 07:50:32;;;;;;;5.80;2.30;;;9.40;99.90;;;;;;5073275;28;20077;-63
2022/04/29 07:52:58;;;;;;;6.47;2.78;;;9.50;99.90;;;;;;5074625;28;20127;-61
2022/04/29 07:55:24;;;;;;;7.13;2.85;;;9.50;99.90;;;;;;5072770;28;20188;-62
2022/04/29 07:57:52;;;;;;;5.07;2.65;;;9.50;99.90;;;;;;5073486;28;20060;-63
2022/04/29 08:00:18;;;;;;;5.38;2.35;;;9.50;99.90;;;;;;5072818;28;20041;-62
2022/04/29 08:02:45;;;;;;;6.50;2.40;;;9.60;99.90;;;;;;5073251;28;20041;-62
2022/04/29 08:05:11;;;;;;;10.50;2.88;;;9.60;99.90;;;;;;5073816;28;20040;-63
2022/04/29 08:07:37;;;;;;;4.47;2.30;;;9.60;99.90;;;;;;5071451;28;20506;-63
2022/04/29 08:10:04;;;;;;;145.57;18.52;;;9.70;99.90;;;;;;5073135;28;20051;-62
2022/04/29 08:12:30;;;;;;;5.95;2.65;;;9.70;99.90;;;;;;5072689;28;20053;-62
2022/04/29 08:14:56;;;;;;;4.57;2.13;;;9.80;99.90;;;;;;5072872;28;20051;-64
2022/04/29 08:17:23;;;;;;;8.52;2.42;;;9.80;99.90;;;;;;5071713;28;20057;-67
2022/04/29 08:19:49;;;;;;;4.38;2.17;;;9.80;99.90;;;;;;5073134;28;20181;-63
2022/04/29 08:22:19;;;;;;;6.93;2.13;;;10.00;99.90;;;;;;5072710;28;20059;-66
2022/04/29 08:24:46;;;;;;;66.13;9.70;;;10.10;99.90;;;;;;5074080;28;20048;-63
2022/04/29 08:27:13;;;;;;;10.02;3.28;;;10.10;99.90;;;;;;5072414;28;20138;-64
2022/04/29 08:29:39;;;;;;;6.35;2.28;;;10.10;99.90;;;;;;5074049;28;20092;-64
2022/04/29 08:32:05;;;;;;;6.43;2.72;;;10.10;99.90;;;;;;5073750;28;20037;-61
2022/04/29 08:34:33;;;;;;;7.22;2.83;;;10.10;99.90;;;;;;5072067;28;20106;-62
2022/04/29 08:37:03;;;;;;;7.68;2.72;;;10.10;99.90;;;;;;5073852;28;20087;-62
2022/04/29 08:39:30;;;;;;;5.53;2.70;;;10.10;99.90;;;;;;5071900;28;20467;-62
2022/04/29 08:42:01;;;;;;;5.50;2.95;;;10.10;99.90;;;;;;5073743;28;20464;-62
2022/04/29 08:44:30;;;;;;;5.63;2.40;;;10.20;99.90;;;;;;5073339;28;20049;-62
2022/04/29 08:46:57;;;;;;;9.18;2.92;;;10.20;99.90;;;;;;5073773;28;20045;-63
2022/04/29 08:49:24;;;;;;;5.03;2.47;;;10.20;99.90;;;;;;5073229;28;20048;-62
2022/04/29 08:51:50;;;;;;;5.35;2.53;;;10.20;99.90;;;;;;5073137;28;20040;-62
2022/04/29 08:59:57;;;;;;;8.20;2.50;;;10.30;99.90;;;;;;5073209;28;20052;-62
2022/04/29 09:02:22;;;;;;;5.45;2.88;;;10.30;99.90;;;;;;5071882;28;20123;-63
2022/04/29 09:04:49;;;;;;;9.93;2.95;;;10.30;99.90;;;;;;5073426;28;20099;-63
2022/04/29 09:07:15;;;;;;;6.20;2.65;;;10.40;99.90;;;;;;5072798;28;20047;-63
2022/04/29 09:09:41;;;;;;;6.32;2.33;;;10.50;99.90;;;;;;5072201;28;20047;-63
2022/04/29 09:12:15;;;;;;;4.07;2.30;;;10.60;99.90;;;;;;5071941;28;20402;-61
2022/04/29 09:14:41;;;;;;;;;;;10.60;99.90;;;;;;5072733;28;20099;-60
2022/04/29 09:17:26;;;;;;;5.82;2.40;;;10.80;99.90;;;;;;5071915;28;20334;-61
2022/04/29 09:19:52;;;;;;;6.60;2.58;;;10.80;99.90;;;;;;5072037;28;20047;-62
2022/04/29 09:22:17;;;;;;;4.50;2.47;;;10.70;99.90;;;;;;5071311;28;20044;-62
2022/04/29 09:25:02;;;;;;;5.57;2.60;;;10.60;99.90;;;;;;5071484;28;20497;-62
2022/04/29 09:27:28;;;;;;;4.70;2.45;;;10.60;99.90;;;;;;5072538;28;20482;-62
2022/04/29 09:29:58;;;;;;;7.00;3.05;;;10.50;99.90;;;;;;5072776;28;20047;-63
2022/04/29 09:32:24;;;;;;;7.93;3.40;;;10.50;99.90;;;;;;5072250;28;20080;-62
2022/04/29 09:34:54;;;;;;;8.95;3.55;;;10.50;99.90;;;;;;5072451;28;20098;-62
2022/04/29 09:37:25;;;;;;;10.52;3.33;;;10.50;99.90;;;;;;5071415;28;20053;-63
2022/04/29 09:39:56;;;;;;;7.28;3.00;;;10.50;99.90;;;;;;5072641;28;20041;-64
2022/04/29 09:42:23;;;;;;;9.90;3.20;;;10.50;99.90;;;;;;5072116;28;20459;-62
2022/04/29 09:44:49;;;;;;;5.10;2.80;;;10.50;99.90;;;;;;5071257;28;20048;-62
2022/04/29 09:47:19;;;;;;;6.32;3.10;;;10.50;99.90;;;;;;5071236;28;20079;-62
2022/04/29 09:49:57;;;;;;;5.60;2.90;;;10.40;99.90;;;;;;5070772;28;20536;-62
2022/04/29 09:52:23;;;;;;;9.07;3.53;;;10.40;99.90;;;;;;5070976;28;20044;-62
2022/04/29 09:54:50;;;;;;;7.88;4.05;;;10.40;99.90;;;;;;5054728;28;20059;-63
2022/04/29 09:57:27;;;;;;;5.72;3.15;;;10.30;99.90;;;;;;5072233;28;20083;-62
2022/04/29 09:59:55;;;;;;;5.63;2.80;;;10.30;99.90;;;;;;5071042;28;20404;-64
2022/04/29 10:02:23;;;;;;;8.93;3.47;;;10.30;99.90;;;;;;5070419;28;20045;-62
2022/04/29 10:04:50;;;;;;;4.40;2.70;;;10.30;99.90;;;;;;5070472;28;20097;-61
2022/04/29 10:07:18;;;;;;;7.15;3.00;;;10.30;99.90;;;;;;5071887;28;20049;-63
2022/04/29 10:09:56;;;;;;;7.60;2.65;;;10.30;99.90;;;;;;5070921;28;20079;-61
2022/04/29 10:12:24;;;;;;;4.80;2.63;;;10.30;99.90;;;;;;5070282;28;20390;-66
2022/04/29 10:14:54;;;;;;;4.57;3.03;;;10.30;99.90;;;;;;5071850;28;20049;-63
2022/04/29 10:22:56;;;;;;;13.90;4.00;;;10.30;99.90;;;;;;5071954;28;20060;-63
2022/04/29 10:25:25;;;;;;;7.72;3.97;;;10.20;99.90;;;;;;5071654;28;20041;-64
2022/04/29 10:27:52;;;;;;;6.57;3.80;;;10.20;99.90;;;;;;5071947;28;20055;-63
2022/04/29 10:30:35;;;;;;;7.18;3.70;;;10.10;99.90;;;;;;5071327;28;20393;-63
2022/04/29 10:33:10;;;;;;;7.28;3.80;;;10.10;99.90;;;;;;5071663;28;20070;-63
2022/04/29 10:35:39;;;;;;;6.80;3.75;;;10.10;99.90;;;;;;5071590;28;20055;-63
2022/04/29 10:38:15;;;;;;;6.03;3.35;;;10.10;99.90;;;;;;5071736;28;20537;-63
2022/04/29 10:40:42;;;;;;;9.02;3.40;;;10.10;99.90;;;;;;5071375;28;20094;-64
2022/04/29 10:43:09;;;;;;;6.85;3.58;;;10.10;99.90;;;;;;5037478;28;20055;-63
2022/04/29 10:45:55;;;;;;;7.43;3.47;;;10.10;99.90;;;;;;5053293;28;20036;-64
2022/04/29 10:48:37;;;;;;;7.25;3.45;;;10.10;99.90;;;;;;5070817;28;20056;-64
2022/04/29 10:51:18;;;;;;;4.95;3.55;;;10.20;99.90;;;;;;5071481;28;20084;-63
2022/04/29 10:53:50;;;;;;;11.45;3.85;;;10.20;99.90;;;;;;5071473;28;20044;-64
2022/04/29 10:56:28;;;;;;;9.73;3.70;;;10.30;99.90;;;;;;5071346;28;20053;-63
2022/04/29 10:59:05;;;;;;;6.63;3.92;;;10.20;99.90;;;;;;5070098;28;20404;-63
2022/04/29 11:01:35;;;;;;;7.43;3.70;;;10.20;99.90;;;;;;5070955;28;20040;-64
2022/04/29 11:04:02;;;;;;;9.25;4.13;;;10.30;99.90;;;;;;5053223;28;20478;-62
2022/04/29 11:06:41;;;;;;;6.90;3.22;;;10.40;99.90;;;;;;5070805;28;20123;-62
2022/04/29 11:09:30;;;;;;;6.00;3.10;;;10.40;99.90;;;;;;5071229;28;20044;-64
2022/04/29 11:11:58;;;;;;;6.45;2.88;;;10.50;99.90;;;;;;5071019;28;20044;-64
2022/04/29 11:14:24;;;;;;;4.63;2.83;;;10.40;99.90;;;;;;5071208;28;20049;-63
2022/04/29 11:17:16;;;;;;;5.05;2.80;;;10.50;99.90;;;;;;5069281;28;20052;-62
2022/04/29 11:19:48;;;;;;;5.70;2.40;;;10.40;99.90;;;;;;5067543;28;20088;-62
2022/04/29 11:25:03;;;;;;;5.72;2.50;;;10.50;99.90;;;;;;5075567;28;20059;-64
2022/04/29 11:27:31;;;;;;;6.50;2.90;;;10.60;99.90;;;;;;5075251;28;20044;-63
2022/04/29 11:30:01;;;;;;;10.35;2.78;;;10.70;99.90;;;;;;5075095;28;20158;-63
2022/04/29 11:32:27;;;;;;;5.43;2.08;;;10.70;99.90;;;;;;5075049;28;20080;-65
2022/04/29 11:35:00;;;;;;;6.22;2.80;;;10.70;99.90;;;;;;5074930;28;20113;-63
2022/04/29 11:37:28;;;;;;;5.65;2.60;;;10.80;99.90;;;;;;5073861;28;20131;-65
2022/04/29 11:40:02;;;;;;;5.25;2.30;;;10.80;99.90;;;;;;5073940;28;20053;-62
2022/04/29 11:42:28;;;;;;;6.32;2.60;;;10.90;99.90;;;;;;5073667;28;20131;-63
2022/04/29 11:44:54;;;;;;;6.80;3.00;;;10.90;99.90;;;;;;5074762;28;20052;-64
2022/04/29 11:47:30;;;;;;;6.15;2.65;;;10.80;99.90;;;;;;5073654;28;20059;-63
2022/04/29 11:49:55;;;;;;;7.00;2.70;;;10.70;99.90;;;;;;5073128;28;20615;-62
2022/04/29 11:52:23;;;;;;;5.68;2.50;;;10.70;99.90;;;;;;5074900;28;20215;-64
2022/04/29 11:54:49;;;;;;;6.38;2.33;;;10.70;99.90;;;;;;5073307;28;20114;-62
2022/04/29 11:57:15;;;;;;;5.90;2.60;;;10.70;99.90;;;;;;5073587;28;20429;-63
2022/04/29 11:59:41;;;;;;;6.85;2.72;;;10.80;99.90;;;;;;5073134;28;20437;-62
2022/04/29 12:02:10;;;;;;;6.82;3.08;;;10.80;99.90;;;;;;5074537;28;20128;-63
2022/04/29 12:04:35;;;;;;;7.03;2.90;;;10.90;99.90;;;;;;5074224;28;20196;-62
2022/04/29 12:07:03;;;;;;;5.10;2.50;;;10.80;99.90;;;;;;5074407;28;20489;-61
2022/04/29 12:09:32;;;;;;;4.22;2.50;;;10.90;99.90;;;;;;5074419;28;20040;-62
2022/04/29 12:11:59;;;;;;;5.40;2.65;;;10.90;99.90;;;;;;5073116;28;20045;-62
2022/04/29 12:14:26;;;;;;;6.82;2.90;;;11.00;99.90;;;;;;5074145;28;20057;-62
2022/04/29 12:16:52;;;;;;;7.35;2.65;;;11.10;99.90;;;;;;5073975;28;20055;-64
2022/04/29 12:19:21;;;;;;;6.45;2.83;;;11.10;99.90;;;;;;5074262;28;20040;-62
2022/04/29 12:21:58;;;;;;;5.75;2.60;;;11.30;99.90;;;;;;5073860;28;20049;-64
2022/04/29 12:24:24;;;;;;;8.23;2.38;;;11.40;99.90;;;;;;5074059;28;20044;-63
2022/04/29 12:27:07;;;;;;;6.40;2.67;;;11.30;99.90;;;;;;5073812;28;20388;-64
2022/04/29 12:29:33;;;;;;;4.38;2.72;;;11.20;99.90;;;;;;5074069;28;20460;-62
2022/04/29 12:35:13;;;;;;;7.22;3.22;;;11.10;99.90;;;;;;5073402;28;20135;-64
2022/04/29 12:37:39;;;;;;;7.03;2.83;;;11.00;99.90;;;;;;5073712;28;20040;-63
2022/04/29 12:40:10;;;;;;;6.88;2.88;;;11.10;99.90;;;;;;5073868;28;20040;-63
2022/04/29 12:42:36;;;;;;;5.82;2.53;;;11.10;99.90;;;;;;5072546;28;20066;-63
2022/04/29 12:47:31;;;;;;;4.45;2.58;;;11.20;99.90;;;;;;5073659;28;20044;-62
2022/04/29 12:50:26;;;;;;;8.90;2.67;;;11.30;99.90;;;;;;5072977;28;20460;-62
2022/04/29 12:53:08;;;;;;;5.30;2.50;;;11.20;99.90;;;;;;5073409;28;20143;-63
2022/04/29 12:55:44;;;;;;;6.78;2.17;;;11.20;99.90;;;;;;5073730;28;20083;-63
2022/04/29 12:58:25;;;;;;;6.05;2.78;;;11.20;99.90;;;;;;5073689;28;20396;-63
2022/04/29 13:00:56;;;;;;;3.55;2.25;;;11.10;99.90;;;;;;5073317;28;20048;-63
2022/04/29 13:03:23;;;;;;;6.53;2.55;;;11.20;99.90;;;;;;5073649;28;20048;-64
2022/04/29 13:05:50;;;;;;;6.93;2.50;;;11.30;99.90;;;;;;5073165;28;20044;-63
2022/04/29 13:08:16;;;;;;;5.40;2.70;;;11.40;99.90;;;;;;5072522;28;20114;-65
2022/04/29 13:10:44;;;;;;;7.88;2.70;;;11.50;99.90;;;;;;5073114;28;20113;-63
2022/04/29 13:13:10;;;;;;;4.70;2.22;;;11.60;99.90;;;;;;5073700;28;20051;-64
2022/04/29 13:15:40;;;;;;;8.35;2.70;;;11.60;99.90;;;;;;5073224;28;20068;-63
2022/04/29 13:18:06;;;;;;;6.95;2.90;;;11.60;99.90;;;;;;5073085;28;20044;-64
2022/04/29 13:20:32;;;;;;;6.15;2.90;;;11.60;99.90;;;;;;5072025;28;20059;-62
2022/04/29 13:22:58;;;;;;;5.55;2.70;;;11.50;99.90;;;;;;5072638;28;20444;-62
2022/04/29 13:25:23;;;;;;;6.70;2.80;;;11.40;99.90;;;;;;5073065;28;20045;-62
2022/04/29 13:27:49;;;;;;;5.75;3.08;;;11.40;99.90;;;;;;5071389;28;20131;-62